NVA1003 MPDA-MPCE
Flight info
| Callsign | NVA1003 |
|---|---|
| Flight time | 0h 53m |
| Altitude | 9000 |
| Route | OSIMA DCT DAGPA |
| Aircraft | PA31/L-SDFGRY/S |
Departure
| Time | 2026-05-05 15:05 |
|---|---|
| Airport | Enrique Malek International Airport (MPDA) |
Arrival
| Time | 2026-05-05 15:58 |
|---|---|
| Airport | Alonso Valderrama Airport (MPCE) |
| Time | Latitude | Longitude | Altitude | Speed | Heading |
|---|---|---|---|---|---|
| 2026-05-05 14:51 | 8.39281 | -82.43134 | 69 ft | 0 kts | 306° |
| 2026-05-05 15:00 | 8.39284 | -82.43137 | 69 ft | 5 kts | 306° |
| 2026-05-05 15:00 | 8.39291 | -82.43170 | 69 ft | 6 kts | 189° |
| 2026-05-05 15:00 | 8.39193 | -82.43211 | 66 ft | 17 kts | 208° |
| 2026-05-05 15:00 | 8.39142 | -82.43282 | 64 ft | 12 kts | 266° |
| 2026-05-05 15:01 | 8.39160 | -82.43359 | 62 ft | 1 kts | 301° |
| 2026-05-05 15:01 | 8.39164 | -82.43366 | 62 ft | 0 kts | 301° |
| 2026-05-05 15:01 | 8.39166 | -82.43369 | 62 ft | 0 kts | 301° |
| 2026-05-05 15:01 | 8.39167 | -82.43372 | 62 ft | 0 kts | 301° |
| 2026-05-05 15:02 | 8.39169 | -82.43374 | 62 ft | 0 kts | 300° |
| 2026-05-05 15:02 | 8.39170 | -82.43376 | 62 ft | 0 kts | 299° |
| 2026-05-05 15:02 | 8.39171 | -82.43378 | 62 ft | 3 kts | 298° |
| 2026-05-05 15:02 | 8.39152 | -82.43456 | 60 ft | 21 kts | 220° |
| 2026-05-05 15:03 | 8.38996 | -82.43579 | 54 ft | 34 kts | 217° |
| 2026-05-05 15:03 | 8.38770 | -82.43758 | 46 ft | 44 kts | 218° |
| 2026-05-05 15:03 | 8.38512 | -82.43954 | 35 ft | 32 kts | 218° |
| 2026-05-05 15:03 | 8.38420 | -82.44018 | 33 ft | 15 kts | 210° |
| 2026-05-05 15:04 | 8.38387 | -82.44055 | 32 ft | 0 kts | 37° |
| 2026-05-05 15:04 | 8.38393 | -82.44051 | 33 ft | 0 kts | 36° |
| 2026-05-05 15:04 | 8.38395 | -82.44049 | 33 ft | 4 kts | 36° |
| 2026-05-05 15:04 | 8.38668 | -82.43838 | 43 ft | 87 kts | 36° |
| 2026-05-05 15:05 | 8.39963 | -82.42828 | 584 ft | 119 kts | 37° |
| 2026-05-05 15:05 | 8.40630 | -82.42296 | 970 ft | 129 kts | 45° |
| 2026-05-05 15:05 | 8.41096 | -82.41511 | 1395 ft | 132 kts | 73° |
| 2026-05-05 15:06 | 8.41153 | -82.40578 | 1833 ft | 132 kts | 99° |
| 2026-05-05 15:06 | 8.40864 | -82.39655 | 2185 ft | 134 kts | 108° |
| 2026-05-05 15:06 | 8.40375 | -82.38854 | 2583 ft | 133 kts | 124° |
| 2026-05-05 15:06 | 8.39862 | -82.38096 | 3014 ft | 130 kts | 122° |
| 2026-05-05 15:07 | 8.39372 | -82.37270 | 3279 ft | 138 kts | 120° |
| 2026-05-05 15:07 | 8.38855 | -82.36490 | 3718 ft | 131 kts | 124° |
| 2026-05-05 15:07 | 8.38333 | -82.35697 | 4019 ft | 137 kts | 120° |
| 2026-05-05 15:07 | 8.37865 | -82.34847 | 4386 ft | 135 kts | 119° |
| 2026-05-05 15:08 | 8.37393 | -82.34013 | 4734 ft | 136 kts | 118° |
| 2026-05-05 15:08 | 8.36945 | -82.33167 | 5069 ft | 136 kts | 117° |
| 2026-05-05 15:08 | 8.36497 | -82.32315 | 5411 ft | 135 kts | 117° |
| 2026-05-05 15:08 | 8.36050 | -82.31464 | 5748 ft | 135 kts | 117° |
| 2026-05-05 15:09 | 8.35695 | -82.30577 | 6081 ft | 133 kts | 97° |
| 2026-05-05 15:09 | 8.35578 | -82.29643 | 6405 ft | 133 kts | 96° |
| 2026-05-05 15:09 | 8.35466 | -82.28706 | 6726 ft | 132 kts | 95° |
| 2026-05-05 15:09 | 8.35359 | -82.27775 | 7042 ft | 132 kts | 95° |
| 2026-05-05 15:10 | 8.35251 | -82.26829 | 7358 ft | 132 kts | 95° |
| 2026-05-05 15:10 | 8.35145 | -82.25893 | 7667 ft | 131 kts | 94° |
| 2026-05-05 15:10 | 8.35054 | -82.24972 | 7967 ft | 131 kts | 94° |
| 2026-05-05 15:10 | 8.34963 | -82.24049 | 8264 ft | 130 kts | 94° |
| 2026-05-05 15:11 | 8.34874 | -82.23128 | 8556 ft | 130 kts | 94° |
| 2026-05-05 15:11 | 8.34786 | -82.22209 | 8845 ft | 129 kts | 94° |
| 2026-05-05 15:11 | 8.34700 | -82.21286 | 9130 ft | 129 kts | 94° |
| 2026-05-05 15:11 | 8.34619 | -82.20379 | 9407 ft | 129 kts | 93° |
| 2026-05-05 15:12 | 8.34542 | -82.19458 | 9685 ft | 128 kts | 93° |
| 2026-05-05 15:12 | 8.34465 | -82.18549 | 9956 ft | 128 kts | 93° |
| 2026-05-05 15:12 | 8.34388 | -82.17643 | 10223 ft | 128 kts | 93° |
| 2026-05-05 15:12 | 8.34313 | -82.16743 | 10484 ft | 127 kts | 92° |
| 2026-05-05 15:13 | 8.34240 | -82.15840 | 10742 ft | 127 kts | 92° |
| 2026-05-05 15:13 | 8.34166 | -82.14919 | 11003 ft | 127 kts | 92° |
| 2026-05-05 15:13 | 8.34094 | -82.14023 | 11253 ft | 126 kts | 92° |
| 2026-05-05 15:13 | 8.34025 | -82.13129 | 11500 ft | 126 kts | 92° |
| 2026-05-05 15:14 | 8.33894 | -82.12248 | 11740 ft | 127 kts | 105° |
| 2026-05-05 15:14 | 8.33620 | -82.11360 | 11867 ft | 137 kts | 104° |
| 2026-05-05 15:14 | 8.33333 | -82.10341 | 11800 ft | 157 kts | 104° |
| 2026-05-05 15:14 | 8.33036 | -82.09202 | 11700 ft | 173 kts | 103° |
| 2026-05-05 15:15 | 8.32739 | -82.07961 | 11591 ft | 184 kts | 102° |
| 2026-05-05 15:15 | 8.32450 | -82.06660 | 11492 ft | 190 kts | 101° |
| 2026-05-05 15:15 | 8.32171 | -82.05319 | 11498 ft | 190 kts | 100° |
| 2026-05-05 15:15 | 8.31909 | -82.03986 | 11499 ft | 189 kts | 99° |
| 2026-05-05 15:16 | 8.31655 | -82.02652 | 11499 ft | 189 kts | 99° |
| 2026-05-05 15:16 | 8.31412 | -82.01337 | 11499 ft | 189 kts | 99° |
| 2026-05-05 15:16 | 8.31173 | -82.00016 | 11499 ft | 189 kts | 99° |
| 2026-05-05 15:16 | 8.30936 | -81.98682 | 11499 ft | 189 kts | 99° |
| 2026-05-05 15:17 | 8.30697 | -81.97330 | 11499 ft | 189 kts | 98° |
| 2026-05-05 15:17 | 8.30467 | -81.96014 | 11499 ft | 189 kts | 98° |
| 2026-05-05 15:17 | 8.30235 | -81.94680 | 11499 ft | 189 kts | 98° |
| 2026-05-05 15:17 | 8.30004 | -81.93346 | 11499 ft | 189 kts | 98° |
| 2026-05-05 15:18 | 8.29764 | -81.92022 | 11498 ft | 189 kts | 103° |
| 2026-05-05 15:18 | 8.29085 | -81.90855 | 11503 ft | 190 kts | 128° |
| 2026-05-05 15:18 | 8.28246 | -81.89781 | 11500 ft | 190 kts | 127° |
| 2026-05-05 15:18 | 8.27551 | -81.88632 | 11499 ft | 190 kts | 115° |
| 2026-05-05 15:19 | 8.27111 | -81.87334 | 11500 ft | 189 kts | 109° |
| 2026-05-05 15:19 | 8.26626 | -81.86087 | 11499 ft | 190 kts | 110° |
| 2026-05-05 15:19 | 8.26125 | -81.84805 | 11499 ft | 190 kts | 110° |
| 2026-05-05 15:19 | 8.25641 | -81.83559 | 11499 ft | 190 kts | 109° |
| 2026-05-05 15:20 | 8.25342 | -81.82238 | 11500 ft | 189 kts | 97° |
| 2026-05-05 15:20 | 8.25127 | -81.80913 | 11499 ft | 189 kts | 98° |
| 2026-05-05 15:20 | 8.24897 | -81.79569 | 11499 ft | 189 kts | 98° |
| 2026-05-05 15:20 | 8.24668 | -81.78230 | 11499 ft | 189 kts | 98° |
| 2026-05-05 15:21 | 8.24429 | -81.76906 | 11499 ft | 189 kts | 99° |
| 2026-05-05 15:21 | 8.24182 | -81.75579 | 11499 ft | 189 kts | 99° |
| 2026-05-05 15:21 | 8.23932 | -81.74234 | 11499 ft | 189 kts | 99° |
| 2026-05-05 15:21 | 8.23689 | -81.72926 | 11499 ft | 189 kts | 99° |
| 2026-05-05 15:22 | 8.23440 | -81.71587 | 11499 ft | 189 kts | 99° |
| 2026-05-05 15:22 | 8.23193 | -81.70256 | 11499 ft | 189 kts | 99° |
| 2026-05-05 15:22 | 8.22944 | -81.68920 | 11499 ft | 189 kts | 99° |
| 2026-05-05 15:22 | 8.22697 | -81.67592 | 11499 ft | 189 kts | 99° |
| 2026-05-05 15:23 | 8.22454 | -81.66285 | 11499 ft | 189 kts | 99° |
| 2026-05-05 15:23 | 8.22203 | -81.64938 | 11499 ft | 189 kts | 99° |
| 2026-05-05 15:23 | 8.21957 | -81.63617 | 11499 ft | 189 kts | 99° |
| 2026-05-05 15:23 | 8.21711 | -81.62296 | 11499 ft | 189 kts | 99° |
| 2026-05-05 15:24 | 8.21464 | -81.60969 | 11499 ft | 189 kts | 99° |
| 2026-05-05 15:24 | 8.21217 | -81.59641 | 11499 ft | 189 kts | 99° |
| 2026-05-05 15:24 | 8.20969 | -81.58309 | 11499 ft | 189 kts | 99° |
| 2026-05-05 15:24 | 8.20721 | -81.56979 | 11499 ft | 189 kts | 99° |
| 2026-05-05 15:25 | 8.20477 | -81.55669 | 11499 ft | 189 kts | 99° |
| 2026-05-05 15:25 | 8.20226 | -81.54320 | 11499 ft | 189 kts | 99° |
| 2026-05-05 15:25 | 8.19980 | -81.52998 | 11499 ft | 189 kts | 99° |
| 2026-05-05 15:25 | 8.19731 | -81.51668 | 11499 ft | 189 kts | 99° |
| 2026-05-05 15:26 | 8.19484 | -81.50340 | 11499 ft | 189 kts | 99° |
| 2026-05-05 15:26 | 8.19237 | -81.49015 | 11499 ft | 189 kts | 99° |
| 2026-05-05 15:26 | 8.18989 | -81.47687 | 11499 ft | 189 kts | 99° |
| 2026-05-05 15:26 | 8.18740 | -81.46354 | 11499 ft | 189 kts | 99° |
| 2026-05-05 15:27 | 8.18493 | -81.45027 | 11499 ft | 189 kts | 99° |
| 2026-05-05 15:27 | 8.18247 | -81.43709 | 11499 ft | 189 kts | 99° |
| 2026-05-05 15:27 | 8.18000 | -81.42387 | 11499 ft | 189 kts | 99° |
| 2026-05-05 15:27 | 8.17750 | -81.41046 | 11499 ft | 189 kts | 99° |
| 2026-05-05 15:28 | 8.17502 | -81.39722 | 11499 ft | 189 kts | 99° |
| 2026-05-05 15:28 | 8.17254 | -81.38393 | 11499 ft | 189 kts | 99° |
| 2026-05-05 15:28 | 8.17010 | -81.37086 | 11499 ft | 189 kts | 99° |
| 2026-05-05 15:28 | 8.16759 | -81.35743 | 11499 ft | 189 kts | 99° |
| 2026-05-05 15:29 | 8.16510 | -81.34414 | 11500 ft | 189 kts | 99° |
| 2026-05-05 15:29 | 8.16260 | -81.33083 | 11501 ft | 189 kts | 99° |
| 2026-05-05 15:29 | 8.16014 | -81.31774 | 11503 ft | 189 kts | 99° |
| 2026-05-05 15:29 | 8.15770 | -81.30470 | 11504 ft | 189 kts | 99° |
| 2026-05-05 15:30 | 8.15517 | -81.29127 | 11506 ft | 189 kts | 99° |
| 2026-05-05 15:30 | 8.15271 | -81.27812 | 11507 ft | 189 kts | 99° |
| 2026-05-05 15:30 | 8.15023 | -81.26487 | 11509 ft | 189 kts | 99° |
| 2026-05-05 15:30 | 8.14776 | -81.25167 | 11510 ft | 189 kts | 99° |
| 2026-05-05 15:31 | 8.14529 | -81.23848 | 11512 ft | 189 kts | 99° |
| 2026-05-05 15:31 | 8.14276 | -81.22495 | 11513 ft | 189 kts | 99° |
| 2026-05-05 15:31 | 8.14029 | -81.21178 | 11515 ft | 189 kts | 99° |
| 2026-05-05 15:31 | 8.13781 | -81.19850 | 11516 ft | 189 kts | 99° |
| 2026-05-05 15:32 | 8.13534 | -81.18533 | 11518 ft | 189 kts | 99° |
| 2026-05-05 15:32 | 8.13288 | -81.17218 | 11519 ft | 189 kts | 99° |
| 2026-05-05 15:32 | 8.13036 | -81.15875 | 11521 ft | 189 kts | 99° |
| 2026-05-05 15:32 | 8.12787 | -81.14544 | 11522 ft | 189 kts | 99° |
| 2026-05-05 15:33 | 8.12540 | -81.13225 | 11524 ft | 189 kts | 99° |
| 2026-05-05 15:33 | 8.12292 | -81.11903 | 11525 ft | 189 kts | 99° |
| 2026-05-05 15:33 | 8.12045 | -81.10588 | 11526 ft | 189 kts | 99° |
| 2026-05-05 15:33 | 8.11795 | -81.09253 | 11526 ft | 189 kts | 99° |
| 2026-05-05 15:34 | 8.11544 | -81.07913 | 11526 ft | 189 kts | 99° |
| 2026-05-05 15:34 | 8.11296 | -81.06589 | 11526 ft | 189 kts | 99° |
| 2026-05-05 15:34 | 8.11047 | -81.05263 | 11526 ft | 189 kts | 99° |
| 2026-05-05 15:34 | 8.10800 | -81.03942 | 11526 ft | 189 kts | 99° |
| 2026-05-05 15:35 | 8.10551 | -81.02618 | 11526 ft | 189 kts | 99° |
| 2026-05-05 15:35 | 8.10305 | -81.01305 | 11526 ft | 189 kts | 99° |
| 2026-05-05 15:35 | 8.10060 | -80.99999 | 11526 ft | 189 kts | 99° |
| 2026-05-05 15:35 | 8.09809 | -80.98666 | 11526 ft | 188 kts | 99° |
| 2026-05-05 15:36 | 8.09565 | -80.97366 | 11526 ft | 188 kts | 99° |
| 2026-05-05 15:36 | 8.09319 | -80.96052 | 11526 ft | 188 kts | 99° |
| 2026-05-05 15:36 | 8.09074 | -80.94742 | 11526 ft | 187 kts | 99° |
| 2026-05-05 15:36 | 8.08827 | -80.93426 | 11526 ft | 187 kts | 99° |
| 2026-05-05 15:37 | 8.08581 | -80.92115 | 11526 ft | 187 kts | 99° |
| 2026-05-05 15:37 | 8.08334 | -80.90799 | 11526 ft | 187 kts | 99° |
| 2026-05-05 15:37 | 8.08088 | -80.89494 | 11526 ft | 187 kts | 99° |
| 2026-05-05 15:37 | 8.07848 | -80.88214 | 11526 ft | 186 kts | 99° |
| 2026-05-05 15:38 | 8.07600 | -80.86893 | 11526 ft | 186 kts | 99° |
| 2026-05-05 15:38 | 8.07354 | -80.85586 | 11526 ft | 186 kts | 99° |
| 2026-05-05 15:38 | 8.07107 | -80.84271 | 11526 ft | 186 kts | 99° |
| 2026-05-05 15:38 | 8.06864 | -80.82980 | 11526 ft | 186 kts | 99° |
| 2026-05-05 15:39 | 8.06619 | -80.81677 | 11526 ft | 186 kts | 99° |
| 2026-05-05 15:39 | 8.06372 | -80.80366 | 11526 ft | 186 kts | 99° |
| 2026-05-05 15:39 | 8.06127 | -80.79066 | 11526 ft | 186 kts | 99° |
| 2026-05-05 15:39 | 8.05883 | -80.77766 | 11526 ft | 186 kts | 99° |
| 2026-05-05 15:40 | 8.05637 | -80.76463 | 11526 ft | 186 kts | 99° |
| 2026-05-05 15:40 | 8.05387 | -80.75138 | 11526 ft | 186 kts | 99° |
| 2026-05-05 15:40 | 8.05142 | -80.73836 | 11526 ft | 186 kts | 99° |
| 2026-05-05 15:40 | 8.04895 | -80.72530 | 11526 ft | 186 kts | 99° |
| 2026-05-05 15:41 | 8.04649 | -80.71221 | 11526 ft | 186 kts | 99° |
| 2026-05-05 15:41 | 8.04403 | -80.69917 | 11526 ft | 186 kts | 99° |
| 2026-05-05 15:41 | 8.04158 | -80.68617 | 11526 ft | 186 kts | 99° |
| 2026-05-05 15:41 | 8.03909 | -80.67298 | 11526 ft | 186 kts | 99° |
| 2026-05-05 15:42 | 8.03662 | -80.65990 | 11526 ft | 186 kts | 99° |
| 2026-05-05 15:42 | 8.03416 | -80.64683 | 11526 ft | 186 kts | 99° |
| 2026-05-05 15:42 | 8.03172 | -80.63392 | 11526 ft | 186 kts | 99° |
| 2026-05-05 15:42 | 8.02925 | -80.62083 | 11526 ft | 186 kts | 99° |
| 2026-05-05 15:43 | 8.02675 | -80.60761 | 11526 ft | 186 kts | 99° |
| 2026-05-05 15:43 | 8.02430 | -80.59463 | 11526 ft | 186 kts | 99° |
| 2026-05-05 15:43 | 8.02181 | -80.58141 | 11526 ft | 186 kts | 99° |
| 2026-05-05 15:43 | 8.01936 | -80.56846 | 11526 ft | 186 kts | 99° |
| 2026-05-05 15:44 | 8.01689 | -80.55542 | 11526 ft | 186 kts | 99° |
| 2026-05-05 15:44 | 8.01441 | -80.54229 | 11526 ft | 186 kts | 99° |
| 2026-05-05 15:44 | 8.01195 | -80.52924 | 11526 ft | 186 kts | 99° |
| 2026-05-05 15:44 | 8.00946 | -80.51610 | 11526 ft | 186 kts | 99° |
| 2026-05-05 15:45 | 8.00672 | -80.50336 | 11525 ft | 186 kts | 107° |
| 2026-05-05 15:45 | 8.00224 | -80.49128 | 11371 ft | 180 kts | 107° |
| 2026-05-05 15:45 | 7.99837 | -80.47938 | 11111 ft | 172 kts | 105° |
| 2026-05-05 15:45 | 7.99500 | -80.46798 | 10849 ft | 166 kts | 104° |
| 2026-05-05 15:46 | 7.99195 | -80.45679 | 10583 ft | 163 kts | 103° |
| 2026-05-05 15:46 | 7.98907 | -80.44566 | 10312 ft | 160 kts | 102° |
| 2026-05-05 15:46 | 7.98644 | -80.43492 | 10046 ft | 158 kts | 102° |
| 2026-05-05 15:46 | 7.98533 | -80.42422 | 9772 ft | 149 kts | 90° |
| 2026-05-05 15:47 | 7.98424 | -80.41401 | 9486 ft | 142 kts | 97° |
| 2026-05-05 15:47 | 7.98328 | -80.40746 | 9291 ft | 139 kts | 96° |
| 2026-05-05 15:47 | 7.98147 | -80.39484 | 8897 ft | 133 kts | 97° |
| 2026-05-05 15:47 | 7.98015 | -80.38562 | 8593 ft | 128 kts | 97° |
| 2026-05-05 15:48 | 7.98098 | -80.37696 | 8266 ft | 121 kts | 58° |
| 2026-05-05 15:48 | 7.98766 | -80.37231 | 7935 ft | 120 kts | 11° |
| 2026-05-05 15:48 | 7.99618 | -80.37190 | 7614 ft | 122 kts | 3° |
| 2026-05-05 15:48 | 8.00473 | -80.37183 | 7298 ft | 123 kts | 2° |
| 2026-05-05 15:49 | 8.01341 | -80.37185 | 6982 ft | 123 kts | 2° |
| 2026-05-05 15:49 | 8.02200 | -80.37189 | 6671 ft | 123 kts | 1° |
| 2026-05-05 15:49 | 8.03075 | -80.37194 | 6357 ft | 123 kts | 1° |
| 2026-05-05 15:49 | 8.03934 | -80.37199 | 6052 ft | 123 kts | 2° |
| 2026-05-05 15:50 | 8.04807 | -80.37203 | 5743 ft | 123 kts | 1° |
| 2026-05-05 15:50 | 8.05675 | -80.37208 | 5439 ft | 123 kts | 1° |
| 2026-05-05 15:50 | 8.06551 | -80.37212 | 5134 ft | 123 kts | 1° |
| 2026-05-05 15:50 | 8.07423 | -80.37216 | 4831 ft | 123 kts | 1° |
| 2026-05-05 15:51 | 8.08258 | -80.37221 | 4605 ft | 113 kts | 1° |
| 2026-05-05 15:51 | 8.09037 | -80.37227 | 4355 ft | 110 kts | 2° |
| 2026-05-05 15:51 | 8.09793 | -80.37232 | 4085 ft | 107 kts | 1° |
| 2026-05-05 15:51 | 8.10498 | -80.37477 | 3800 ft | 108 kts | 317° |
| 2026-05-05 15:52 | 8.10815 | -80.38154 | 3521 ft | 106 kts | 277° |
| 2026-05-05 15:52 | 8.10914 | -80.38893 | 3250 ft | 106 kts | 273° |
| 2026-05-05 15:52 | 8.10973 | -80.39648 | 2977 ft | 105 kts | 272° |
| 2026-05-05 15:52 | 8.11027 | -80.40393 | 2707 ft | 105 kts | 272° |
| 2026-05-05 15:53 | 8.11056 | -80.41138 | 2437 ft | 104 kts | 269° |
| 2026-05-05 15:53 | 8.10980 | -80.41866 | 2165 ft | 101 kts | 241° |
| 2026-05-05 15:53 | 8.10461 | -80.42309 | 1891 ft | 97 kts | 193° |
| 2026-05-05 15:53 | 8.09798 | -80.42320 | 1630 ft | 96 kts | 172° |
| 2026-05-05 15:54 | 8.09118 | -80.42239 | 1409 ft | 98 kts | 172° |
| 2026-05-05 15:54 | 8.08394 | -80.42142 | 1423 ft | 106 kts | 172° |
| 2026-05-05 15:54 | 8.07654 | -80.42057 | 1415 ft | 102 kts | 173° |
| 2026-05-05 15:54 | 8.06988 | -80.41983 | 1389 ft | 89 kts | 172° |
| 2026-05-05 15:55 | 8.06381 | -80.41913 | 1310 ft | 83 kts | 173° |
| 2026-05-05 15:55 | 8.05833 | -80.41853 | 1143 ft | 75 kts | 173° |
| 2026-05-05 15:55 | 8.05282 | -80.41784 | 992 ft | 88 kts | 172° |
| 2026-05-05 15:55 | 8.04656 | -80.41714 | 928 ft | 87 kts | 173° |
| 2026-05-05 15:56 | 8.04053 | -80.41643 | 842 ft | 85 kts | 173° |
| 2026-05-05 15:56 | 8.03458 | -80.41570 | 745 ft | 84 kts | 173° |
| 2026-05-05 15:56 | 8.02858 | -80.41496 | 677 ft | 88 kts | 173° |
| 2026-05-05 15:56 | 8.02269 | -80.41425 | 606 ft | 80 kts | 173° |
| 2026-05-05 15:57 | 8.01732 | -80.41356 | 451 ft | 72 kts | 171° |
| 2026-05-05 15:57 | 8.01217 | -80.41260 | 325 ft | 73 kts | 167° |
| 2026-05-05 15:57 | 8.00699 | -80.41159 | 220 ft | 73 kts | 175° |
| 2026-05-05 15:57 | 8.00194 | -80.41103 | 133 ft | 71 kts | 166° |
| 2026-05-05 15:58 | 7.99682 | -80.40953 | 199 ft | 77 kts | 157° |
| 2026-05-05 15:58 | 7.99152 | -80.40916 | 53 ft | 73 kts | 190° |
| 2026-05-05 15:58 | 7.98617 | -80.41020 | 30 ft | 70 kts | 187° |
| 2026-05-05 15:58 | 7.98330 | -80.41074 | 28 ft | 14 kts | 188° |
| 2026-05-05 15:59 | 7.98213 | -80.41093 | 27 ft | 13 kts | 165° |
| 2026-05-05 15:59 | 7.98184 | -80.41021 | 28 ft | 7 kts | 103° |
| 2026-05-05 15:59 | 7.98184 | -80.41016 | 28 ft | 0 kts | 102° |